Time;durP1;ratioP1;P1;durP2;ratioP2;P2;SDS_P1;SDS_P2;PMS_P1;PMS_P2;Temp;Humidity;BMP_temperature;BMP_pressure;BME280_temperature;BME280_humidity;BME280_pressure;Samples;Min_cycle;Max_cycle;Signal;HPM_P1;HPM_P2
2021/10/13 00:00:27;;;;;;;26.13;3.60;;;7.30;99.90;;;;;;5075551;28;20432;-82
2021/10/13 00:02:53;;;;;;;28.57;3.83;;;7.30;99.90;;;;;;5071591;28;20490;-81
2021/10/13 00:05:20;;;;;;;26.60;3.43;;;7.30;99.90;;;;;;5055545;28;20455;-81
2021/10/13 00:07:47;;;;;;;28.40;3.47;;;7.30;99.90;;;;;;5055494;28;20447;-82
2021/10/13 00:10:15;;;;;;;29.53;4.30;;;7.30;99.90;;;;;;5075367;28;20449;-80
2021/10/13 00:12:42;;;;;;;26.97;4.07;;;7.20;99.90;;;;;;5074882;28;20840;-81
2021/10/13 00:15:12;;;;;;;25.67;3.63;;;7.10;99.90;;;;;;5074339;28;20994;-82
2021/10/13 00:17:39;;;;;;;28.80;4.40;;;7.10;99.90;;;;;;5074074;28;20455;-81
2021/10/13 00:20:07;;;;;;;27.33;3.70;;;7.10;99.90;;;;;;5074995;28;20457;-82
2021/10/13 00:22:34;;;;;;;27.50;3.33;;;7.10;99.90;;;;;;5066075;28;20844;-82
2021/10/13 00:25:01;;;;;;;26.47;3.60;;;7.10;99.90;;;;;;5071635;28;20534;-81
2021/10/13 00:27:29;;;;;;;29.50;4.27;;;7.10;99.90;;;;;;5054917;28;20454;-81
2021/10/13 00:29:56;;;;;;;26.60;3.63;;;7.10;99.90;;;;;;5053957;28;20531;-82
2021/10/13 00:32:23;;;;;;;25.60;3.50;;;7.20;99.90;;;;;;5055047;28;20484;-81
2021/10/13 00:34:50;;;;;;;27.23;3.67;;;7.10;99.90;;;;;;5068458;28;20490;-82
2021/10/13 00:37:18;;;;;;;24.77;3.13;;;7.20;99.90;;;;;;5059310;28;20460;-82
2021/10/13 00:39:45;;;;;;;27.43;3.40;;;7.20;99.90;;;;;;5066949;28;20448;-83
2021/10/13 00:42:12;;;;;;;27.00;3.80;;;7.30;99.90;;;;;;5079211;28;20520;-83
2021/10/13 00:44:40;;;;;;;24.30;3.23;;;7.30;99.90;;;;;;5078373;28;20450;-83
2021/10/13 00:47:06;;;;;;;26.63;2.97;;;7.30;99.90;;;;;;5072519;28;20449;-83
2021/10/13 00:49:34;;;;;;;26.90;3.50;;;7.30;99.90;;;;;;5070493;28;20453;-81
2021/10/13 00:52:02;;;;;;;28.73;4.00;;;7.20;99.90;;;;;;5079900;28;20446;-83
2021/10/13 00:54:28;;;;;;;28.53;4.13;;;7.30;99.90;;;;;;5076048;28;20488;-82
2021/10/13 00:56:55;;;;;;;25.60;3.60;;;7.30;99.90;;;;;;5079065;28;20483;-83
2021/10/13 00:59:22;;;;;;;24.20;4.40;;;7.30;99.90;;;;;;5062734;28;20804;-83
2021/10/13 01:01:54;;;;;;;29.30;3.90;;;7.20;99.90;;;;;;5059107;28;20448;-82
2021/10/13 01:04:51;;;;;;;26.30;3.87;;;7.20;99.90;;;;;;5059449;28;20455;-83
2021/10/13 01:07:27;;;;;;;25.47;3.40;;;7.20;99.90;;;;;;5059348;28;20909;-81
2021/10/13 01:09:58;;;;;;;29.87;4.03;;;7.20;99.90;;;;;;5063969;28;20456;-83
2021/10/13 01:12:36;;;;;;;24.00;3.03;;;7.20;99.90;;;;;;5078262;28;20466;-83
2021/10/13 01:15:13;;;;;;;26.50;4.40;;;7.20;99.90;;;;;;5079598;28;20564;-83
2021/10/13 01:17:50;;;;;;;26.33;3.93;;;7.20;99.90;;;;;;5075879;28;20453;-83
2021/10/13 01:20:30;;;;;;;25.70;3.93;;;7.20;99.90;;;;;;5059330;28;20450;-81
2021/10/13 01:23:22;;;;;;;31.57;4.50;;;7.20;99.90;;;;;;5074086;28;20470;-82
2021/10/13 01:25:55;;;;;;;26.00;3.13;;;7.20;99.90;;;;;;5074746;28;20442;-81
2021/10/13 01:28:26;;;;;;;26.43;3.30;;;7.20;99.90;;;;;;5074513;28;20485;-82
2021/10/13 01:30:58;;;;;;;27.60;3.50;;;7.20;99.90;;;;;;5074538;28;20450;-82
2021/10/13 01:33:27;;;;;;;28.17;3.60;;;7.20;99.90;;;;;;5064208;28;20492;-80
2021/10/13 01:36:00;;;;;;;28.43;4.10;;;7.20;99.90;;;;;;5053788;28;20448;-82
2021/10/13 01:38:31;;;;;;;27.07;3.53;;;7.10;99.90;;;;;;5071615;28;20459;-81
2021/10/13 01:41:02;;;;;;;27.90;4.07;;;7.20;99.90;;;;;;5054260;28;20451;-82
2021/10/13 01:43:35;;;;;;;24.03;3.07;;;7.20;99.90;;;;;;5062047;28;20544;-83
2021/10/13 01:46:04;;;;;;;24.20;3.40;;;7.20;99.90;;;;;;5059097;28;20452;-81
2021/10/13 01:48:32;;;;;;;27.20;4.20;;;7.20;99.90;;;;;;5058822;28;20451;-83
2021/10/13 01:50:59;;;;;;;24.50;3.03;;;7.20;99.90;;;;;;5059680;28;20539;-83
2021/10/13 01:53:27;;;;;;;28.20;4.87;;;7.20;99.90;;;;;;5067967;28;20485;-82
2021/10/13 01:55:57;;;;;;;26.97;3.90;;;7.20;99.90;;;;;;5078665;28;20454;-83
2021/10/13 01:58:26;;;;;;;26.33;3.97;;;7.30;99.90;;;;;;5075380;28;20482;-81
2021/10/13 02:00:56;;;;;;;24.30;3.30;;;7.20;99.90;;;;;;5065807;28;20455;-81
2021/10/13 02:03:26;;;;;;;24.07;3.27;;;7.20;99.90;;;;;;5054786;28;20500;-82
2021/10/13 02:05:56;;;;;;;28.60;4.40;;;7.30;99.90;;;;;;5052807;28;20451;-81
2021/10/13 02:08:24;;;;;;;27.97;4.30;;;7.30;99.90;;;;;;5052551;28;20456;-81
2021/10/13 02:10:53;;;;;;;24.60;5.17;;;7.30;99.90;;;;;;5052574;28;20452;-81
2021/10/13 02:13:21;;;;;;;24.93;4.20;;;7.40;99.90;;;;;;5059695;28;20477;-81
2021/10/13 02:15:51;;;;;;;24.10;4.20;;;7.40;99.90;;;;;;5072250;28;20463;-81
2021/10/13 02:18:24;;;;;;;24.57;4.00;;;7.50;99.90;;;;;;5064491;28;20460;-80
2021/10/13 02:20:54;;;;;;;25.40;4.50;;;7.50;99.90;;;;;;5052340;28;20450;-81
2021/10/13 02:23:23;;;;;;;28.23;4.63;;;7.50;99.90;;;;;;5060522;28;20471;-81
2021/10/13 02:25:53;;;;;;;27.27;4.43;;;7.60;99.90;;;;;;5072348;28;20454;-81
2021/10/13 02:28:31;;;;;;;28.57;4.70;;;7.70;99.90;;;;;;5063661;28;20452;-81
2021/10/13 02:30:58;;;;;;;31.10;5.17;;;7.70;99.90;;;;;;5052612;28;20527;-80
2021/10/13 02:33:26;;;;;;;23.93;4.47;;;7.70;99.90;;;;;;5070828;28;20470;-81
2021/10/13 02:35:53;;;;;;;25.13;5.07;;;7.80;99.90;;;;;;5072807;28;20452;-81
2021/10/13 02:38:20;;;;;;;23.63;4.57;;;7.80;99.90;;;;;;5072423;28;20845;-81
2021/10/13 02:40:47;;;;;;;25.63;6.20;;;7.90;99.90;;;;;;5072089;28;20459;-81
2021/10/13 02:43:14;;;;;;;23.10;4.73;;;8.00;99.90;;;;;;5064621;28;20477;-82
2021/10/13 02:45:46;;;;;;;26.50;5.70;;;8.00;99.90;;;;;;5076183;28;20447;-82
2021/10/13 02:48:22;;;;;;;24.53;5.50;;;8.10;99.90;;;;;;5071437;28;21035;-81
2021/10/13 02:50:59;;;;;;;23.90;5.53;;;8.10;99.90;;;;;;5074577;28;20444;-82
2021/10/13 02:53:32;;;;;;;24.17;5.07;;;8.10;99.90;;;;;;5071694;28;21224;-82
2021/10/13 02:56:03;;;;;;;24.43;4.70;;;8.20;99.90;;;;;;5067673;28;20829;-83
2021/10/13 02:58:38;;;;;;;22.60;4.60;;;8.20;99.90;;;;;;5075511;28;20990;-82
2021/10/13 03:01:05;;;;;;;27.60;6.20;;;8.20;99.90;;;;;;5077348;28;20438;-83
2021/10/13 03:03:36;;;;;;;26.53;4.90;;;8.20;99.90;;;;;;5061854;28;20480;-83
2021/10/13 03:06:06;;;;;;;27.13;6.10;;;8.10;99.90;;;;;;5060885;28;20960;-82
2021/10/13 03:08:36;;;;;;;25.83;5.30;;;8.10;99.90;;;;;;5067973;28;20448;-83
2021/10/13 03:11:05;;;;;;;24.60;4.57;;;8.00;99.90;;;;;;5065006;28;20957;-82
2021/10/13 03:13:34;;;;;;;26.03;5.00;;;8.00;99.90;;;;;;5063874;28;20479;-83
2021/10/13 03:16:02;;;;;;;27.60;5.90;;;7.90;99.90;;;;;;5076690;28;20457;-83
2021/10/13 03:18:30;;;;;;;31.53;5.27;;;7.80;99.90;;;;;;5076073;28;20454;-82
2021/10/13 03:20:58;;;;;;;27.70;5.23;;;7.80;99.90;;;;;;5056323;28;20451;-83
2021/10/13 03:23:28;;;;;;;32.10;5.33;;;7.70;99.90;;;;;;5059646;28;20468;-83
2021/10/13 03:25:55;;;;;;;26.40;4.60;;;7.70;99.90;;;;;;5057167;28;20457;-83
2021/10/13 03:28:21;;;;;;;27.90;5.70;;;7.70;99.90;;;;;;5065284;28;20454;-82
2021/10/13 03:30:48;;;;;;;26.23;4.80;;;7.70;99.90;;;;;;5076514;28;20482;-83
2021/10/13 03:33:18;;;;;;;26.37;5.17;;;7.60;99.90;;;;;;5070957;28;20484;-83
2021/10/13 03:35:45;;;;;;;28.43;5.13;;;7.60;99.90;;;;;;5056351;28;20504;-83
2021/10/13 03:38:11;;;;;;;27.90;5.40;;;7.50;99.90;;;;;;5057395;28;20491;-82
2021/10/13 03:40:39;;;;;;;27.40;5.30;;;7.50;99.90;;;;;;5062062;28;20451;-82
2021/10/13 03:43:09;;;;;;;27.37;5.20;;;7.50;99.90;;;;;;5059375;28;20474;-83
2021/10/13 03:45:36;;;;;;;26.43;4.80;;;7.50;99.90;;;;;;5056611;28;20440;-81
2021/10/13 03:48:03;;;;;;;31.40;5.87;;;7.50;99.90;;;;;;5062397;28;20459;-82
2021/10/13 03:50:30;;;;;;;28.50;5.43;;;7.50;99.90;;;;;;5062202;28;20460;-82
2021/10/13 03:52:57;;;;;;;28.97;5.70;;;7.40;99.90;;;;;;5064412;28;20478;-82
2021/10/13 03:55:24;;;;;;;32.17;6.47;;;7.40;99.90;;;;;;5076589;28;20479;-82
2021/10/13 03:57:52;;;;;;;33.13;6.20;;;7.40;99.90;;;;;;5083821;28;20474;-82
2021/10/13 04:00:21;;;;;;;26.60;5.10;;;7.40;99.90;;;;;;5084657;28;20447;-83
2021/10/13 04:02:49;;;;;;;29.17;6.00;;;7.40;99.90;;;;;;5060787;28;20472;-82
2021/10/13 04:05:16;;;;;;;29.20;6.10;;;7.30;99.90;;;;;;5079469;28;20451;-83
2021/10/13 04:07:43;;;;;;;28.30;6.73;;;7.30;99.90;;;;;;5079318;28;20959;-84
2021/10/13 04:10:12;;;;;;;30.97;5.17;;;7.20;99.90;;;;;;5080249;28;20452;-83
2021/10/13 04:12:39;;;;;;;28.43;5.87;;;7.20;99.90;;;;;;5076478;28;20470;-82
2021/10/13 04:15:10;;;;;;;28.83;6.50;;;7.20;99.90;;;;;;5060550;28;20483;-83
2021/10/13 04:17:37;;;;;;;27.70;6.67;;;7.20;99.90;;;;;;5073831;28;20454;-82
2021/10/13 04:20:06;;;;;;;30.90;6.03;;;7.20;99.90;;;;;;5069287;28;20455;-83
2021/10/13 04:22:33;;;;;;;26.80;5.23;;;7.20;99.90;;;;;;5064010;28;20460;-83
2021/10/13 04:25:00;;;;;;;29.00;5.70;;;7.30;99.90;;;;;;5078403;28;20443;-83
2021/10/13 04:27:27;;;;;;;29.40;5.50;;;7.20;99.90;;;;;;5070184;28;20460;-83
2021/10/13 04:29:54;;;;;;;28.47;5.60;;;7.30;99.90;;;;;;5077800;28;20461;-83
2021/10/13 04:32:22;;;;;;;27.97;5.97;;;7.30;99.90;;;;;;5079343;28;20474;-83
2021/10/13 04:34:49;;;;;;;31.67;7.30;;;7.40;99.90;;;;;;5078282;28;20860;-83
2021/10/13 04:37:16;;;;;;;26.50;5.57;;;7.40;99.90;;;;;;5074042;28;20456;-83
2021/10/13 04:39:43;;;;;;;29.07;6.20;;;7.50;99.90;;;;;;5074128;28;20467;-83
2021/10/13 04:42:10;;;;;;;27.70;7.07;;;7.50;99.90;;;;;;5059744;28;20472;-83
2021/10/13 04:44:37;;;;;;;28.10;7.67;;;7.50;99.90;;;;;;5073488;28;20451;-83
2021/10/13 04:47:05;;;;;;;27.37;7.30;;;7.50;99.90;;;;;;5075617;28;20463;-83
2021/10/13 04:49:33;;;;;;;28.03;7.40;;;7.60;99.90;;;;;;5079486;28;20449;-83
2021/10/13 04:52:00;;;;;;;26.83;6.93;;;7.60;99.90;;;;;;5078107;28;20816;-83
2021/10/13 04:54:27;;;;;;;26.43;6.83;;;7.60;99.90;;;;;;5071166;28;20867;-82
2021/10/13 04:56:53;;;;;;;27.30;6.50;;;7.70;99.90;;;;;;5078751;28;20453;-83
2021/10/13 04:59:20;;;;;;;25.53;6.70;;;7.80;99.90;;;;;;5079122;28;20451;-83
2021/10/13 05:01:47;;;;;;;26.63;6.10;;;7.90;99.90;;;;;;5079264;28;20951;-84
2021/10/13 05:04:14;;;;;;;31.70;8.87;;;7.90;99.90;;;;;;5071068;28;20458;-83
2021/10/13 05:06:43;;;;;;;28.00;7.90;;;7.90;99.90;;;;;;5073494;28;20473;-84
2021/10/13 05:09:09;;;;;;;27.20;7.67;;;7.90;99.90;;;;;;5076995;28;20451;-83
2021/10/13 05:11:36;;;;;;;30.83;9.10;;;7.90;99.90;;;;;;5075034;28;20830;-84
2021/10/13 05:14:03;;;;;;;28.80;7.70;;;7.90;99.90;;;;;;5064225;28;20479;-82
2021/10/13 05:16:30;;;;;;;25.93;7.20;;;8.00;99.90;;;;;;5074479;28;20807;-84
2021/10/13 05:18:57;;;;;;;24.60;7.00;;;8.10;99.90;;;;;;5072835;28;20450;-84
2021/10/13 05:21:24;;;;;;;27.40;8.20;;;8.10;99.90;;;;;;5081918;28;20877;-83
2021/10/13 05:23:52;;;;;;;30.17;7.67;;;8.10;99.90;;;;;;5081273;28;20483;-84
2021/10/13 05:26:19;;;;;;;28.00;7.53;;;8.10;99.90;;;;;;5075443;28;20445;-83
2021/10/13 05:28:46;;;;;;;29.70;7.20;;;8.00;99.90;;;;;;5060917;28;20542;-82
2021/10/13 05:31:13;;;;;;;32.40;7.40;;;8.00;99.90;;;;;;5073125;28;20446;-83
2021/10/13 05:33:39;;;;;;;28.60;7.43;;;8.00;99.90;;;;;;5078250;28;20554;-85
2021/10/13 05:36:06;;;;;;;29.93;7.50;;;8.10;99.90;;;;;;5076192;28;20486;-83
2021/10/13 05:38:33;;;;;;;26.63;6.80;;;8.00;99.90;;;;;;5074250;28;20974;-82
2021/10/13 05:41:01;;;;;;;26.77;6.63;;;8.00;99.90;;;;;;5070478;28;20455;-84
2021/10/13 05:43:28;;;;;;;30.30;7.10;;;8.00;99.90;;;;;;5075338;28;20485;-83
2021/10/13 05:45:55;;;;;;;26.40;6.30;;;8.00;99.90;;;;;;5073498;28;20461;-83
2021/10/13 05:48:22;;;;;;;28.40;7.00;;;8.10;99.90;;;;;;5068089;28;20455;-84
2021/10/13 05:50:49;;;;;;;24.23;5.97;;;8.00;99.90;;;;;;5072733;28;20546;-84
2021/10/13 05:53:15;;;;;;;30.97;7.80;;;8.00;99.90;;;;;;5073972;28;20476;-83
2021/10/13 05:55:42;;;;;;;26.40;7.93;;;8.10;99.90;;;;;;5070324;28;20491;-84
2021/10/13 05:58:10;;;;;;;29.93;7.23;;;8.10;99.90;;;;;;5087356;28;20535;-82
2021/10/13 06:00:37;;;;;;;26.13;7.80;;;8.10;99.90;;;;;;5073879;28;20460;-82
2021/10/13 06:03:05;;;;;;;33.63;7.57;;;8.10;99.90;;;;;;5068192;28;20471;-84
2021/10/13 06:05:35;;;;;;;24.80;6.10;;;8.10;99.90;;;;;;5067466;28;20454;-83
2021/10/13 06:08:02;;;;;;;30.57;8.70;;;8.10;99.90;;;;;;5065296;28;20974;-81
2021/10/13 06:10:29;;;;;;;27.70;9.30;;;8.10;99.90;;;;;;5071345;28;20976;-84
2021/10/13 06:12:55;;;;;;;27.77;8.23;;;8.10;99.90;;;;;;5076338;28;20991;-84
2021/10/13 06:15:26;;;;;;;26.70;7.57;;;8.20;99.90;;;;;;5079772;28;20491;-82
2021/10/13 06:17:53;;;;;;;28.43;9.27;;;8.20;99.90;;;;;;5080866;28;20457;-81
2021/10/13 06:20:20;;;;;;;28.93;7.50;;;8.20;99.90;;;;;;5077000;28;20955;-82
2021/10/13 06:22:47;;;;;;;28.83;8.10;;;8.30;99.90;;;;;;5076685;28;20478;-83
2021/10/13 06:25:14;;;;;;;26.70;8.00;;;8.20;99.90;;;;;;5076895;28;20443;-82
2021/10/13 06:27:40;;;;;;;29.50;8.77;;;8.30;99.90;;;;;;5076633;28;20491;-81
2021/10/13 06:30:08;;;;;;;26.60;8.03;;;8.40;99.90;;;;;;5077198;28;20458;-83
2021/10/13 06:32:36;;;;;;;30.33;8.47;;;8.50;99.90;;;;;;5076694;28;20489;-83
2021/10/13 06:35:05;;;;;;;25.73;7.40;;;8.50;99.90;;;;;;5057312;28;20484;-83
2021/10/13 06:37:37;;;;;;;28.30;8.00;;;8.50;99.90;;;;;;5057321;28;20488;-82
2021/10/13 06:40:10;;;;;;;29.83;9.67;;;8.60;99.90;;;;;;5057028;28;20456;-83
2021/10/13 06:42:41;;;;;;;30.20;8.90;;;8.60;99.90;;;;;;5056985;28;20473;-82
2021/10/13 06:45:16;;;;;;;28.90;10.50;;;8.60;99.90;;;;;;5077574;28;20507;-82
2021/10/13 06:47:51;;;;;;;29.70;8.27;;;8.60;99.90;;;;;;5077597;28;20462;-83
2021/10/13 06:50:18;;;;;;;33.20;9.33;;;8.60;99.90;;;;;;5077424;28;20521;-82
2021/10/13 06:53:01;;;;;;;30.70;11.87;;;8.70;99.90;;;;;;5075610;28;20532;-83
2021/10/13 06:55:36;;;;;;;25.77;7.93;;;8.70;99.90;;;;;;5057806;28;20515;-82
2021/10/13 06:58:05;;;;;;;27.67;8.17;;;8.80;99.90;;;;;;5056663;28;20459;-82
2021/10/13 07:00:32;;;;;;;27.63;8.00;;;8.80;99.90;;;;;;5057809;28;20454;-83
2021/10/13 07:03:08;;;;;;;30.30;9.80;;;8.90;99.90;;;;;;5059875;28;20982;-83
2021/10/13 07:05:44;;;;;;;25.93;8.13;;;9.00;99.90;;;;;;5078033;28;20449;-82
2021/10/13 07:08:16;;;;;;;28.37;8.53;;;9.00;99.90;;;;;;5075937;28;20498;-83
2021/10/13 07:10:51;;;;;;;27.63;9.33;;;9.10;99.90;;;;;;5076565;28;20452;-82
2021/10/13 07:13:22;;;;;;;25.33;8.43;;;9.10;99.90;;;;;;5071228;28;20479;-83
2021/10/13 07:15:56;;;;;;;29.63;8.77;;;9.20;99.90;;;;;;5057180;28;20497;-83
2021/10/13 07:18:34;;;;;;;29.03;9.27;;;9.20;99.90;;;;;;5056375;28;20456;-83
2021/10/13 07:21:01;;;;;;;27.93;8.53;;;9.20;99.90;;;;;;5057960;28;20456;-83
2021/10/13 07:23:32;;;;;;;26.30;8.77;;;9.30;99.90;;;;;;5065685;28;20476;-83
2021/10/13 07:26:10;;;;;;;30.73;9.43;;;9.40;99.90;;;;;;5073626;28;20452;-82
2021/10/13 07:28:41;;;;;;;27.97;7.93;;;9.30;99.90;;;;;;5057321;28;20460;-82
2021/10/13 07:31:15;;;;;;;25.63;8.07;;;9.40;99.90;;;;;;5057973;28;20468;-83
2021/10/13 07:33:49;;;;;;;25.53;8.90;;;9.40;99.90;;;;;;5065184;28;20548;-79
2021/10/13 07:36:18;;;;;;;30.13;8.50;;;9.40;99.90;;;;;;5076786;28;20490;-83
2021/10/13 07:38:56;;;;;;;29.20;9.37;;;9.50;99.90;;;;;;5080299;28;20453;-83
2021/10/13 07:41:26;;;;;;;31.10;9.50;;;9.50;99.90;;;;;;5081402;28;20477;-83
2021/10/13 07:43:53;;;;;;;29.57;9.93;;;9.60;99.90;;;;;;5067212;28;20472;-83
2021/10/13 07:46:23;;;;;;;31.80;11.73;;;9.70;99.90;;;;;;5062547;28;20449;-84
2021/10/13 07:48:51;;;;;;;29.23;9.30;;;9.80;99.90;;;;;;5063076;28;20452;-82
2021/10/13 07:51:18;;;;;;;30.87;10.47;;;9.90;99.90;;;;;;5064226;28;20987;-84
2021/10/13 07:53:53;;;;;;;27.50;9.20;;;9.90;99.90;;;;;;5076019;28;20490;-83
2021/10/13 07:56:22;;;;;;;28.37;9.13;;;9.90;99.90;;;;;;5090193;28;20508;-82
2021/10/13 07:58:52;;;;;;;29.20;9.10;;;9.90;99.90;;;;;;5091039;28;20448;-83
2021/10/13 08:01:19;;;;;;;31.20;8.57;;;9.90;99.90;;;;;;5080954;28;20446;-82
2021/10/13 08:03:55;;;;;;;26.37;9.70;;;9.90;99.90;;;;;;5067704;28;20477;-82
2021/10/13 08:06:26;;;;;;;26.13;8.10;;;10.00;99.90;;;;;;5060885;28;20454;-83
2021/10/13 08:08:56;;;;;;;27.20;9.90;;;9.90;99.90;;;;;;5061235;28;21018;-83
2021/10/13 08:11:28;;;;;;;28.70;11.50;;;10.00;99.90;;;;;;5062406;28;20453;-82
2021/10/13 08:13:55;;;;;;;26.10;8.93;;;10.10;99.90;;;;;;5073619;28;20477;-83
2021/10/13 08:16:21;;;;;;;28.73;9.43;;;10.20;99.90;;;;;;5080038;28;20498;-82
2021/10/13 08:18:52;;;;;;;31.10;9.70;;;10.30;99.90;;;;;;5081688;28;20456;-84
2021/10/13 08:21:22;;;;;;;26.60;10.03;;;10.30;99.90;;;;;;5081692;28;20458;-83
2021/10/13 08:23:55;;;;;;;26.40;9.93;;;10.30;99.90;;;;;;5068236;28;20977;-84
2021/10/13 08:26:23;;;;;;;28.93;8.97;;;10.20;99.90;;;;;;5061792;28;20465;-84
2021/10/13 08:28:56;;;;;;;29.20;8.70;;;10.30;99.90;;;;;;5061916;28;20493;-83
2021/10/13 08:31:22;;;;;;;31.57;10.97;;;10.30;99.90;;;;;;5061511;28;20507;-83
2021/10/13 08:33:53;;;;;;;29.03;10.23;;;10.30;99.90;;;;;;5073322;28;20479;-84
2021/10/13 08:36:22;;;;;;;29.10;10.30;;;10.40;99.90;;;;;;5064237;28;20549;-83
2021/10/13 08:38:52;;;;;;;32.30;11.17;;;10.40;99.90;;;;;;5061300;28;20449;-84
2021/10/13 08:41:19;;;;;;;28.70;9.80;;;10.40;99.90;;;;;;5060405;28;20465;-83
2021/10/13 08:43:53;;;;;;;26.77;9.67;;;10.40;99.90;;;;;;5061671;28;20490;-84
2021/10/13 08:46:21;;;;;;;24.43;8.83;;;10.60;99.90;;;;;;5061055;28;20446;-84
2021/10/13 08:48:48;;;;;;;29.03;8.83;;;10.70;99.90;;;;;;5061908;28;20458;-84
2021/10/13 08:51:15;;;;;;;29.20;9.37;;;10.70;99.90;;;;;;5060937;28;20487;-82
2021/10/13 08:53:48;;;;;;;28.20;9.50;;;10.90;99.90;;;;;;5071065;28;20534;-84
2021/10/13 08:56:19;;;;;;;30.10;8.50;;;11.00;99.90;;;;;;5080553;28;20581;-81
2021/10/13 08:58:51;;;;;;;26.73;9.93;;;10.90;99.90;;;;;;5080619;28;20460;-82
2021/10/13 09:01:18;;;;;;;27.13;8.83;;;11.00;99.90;;;;;;5080406;28;20969;-83
2021/10/13 09:04:04;;;;;;;26.30;7.90;;;11.00;99.90;;;;;;5069937;28;20469;-84
2021/10/13 09:06:42;;;;;;;26.60;8.47;;;11.10;99.90;;;;;;5059563;28;20475;-84
2021/10/13 09:09:11;;;;;;;28.47;9.27;;;11.20;99.90;;;;;;5058908;28;20499;-83
2021/10/13 09:11:47;;;;;;;27.33;9.80;;;11.40;99.90;;;;;;5059923;28;20449;-82
2021/10/13 09:14:20;;;;;;;27.63;9.47;;;11.40;99.90;;;;;;5074608;28;20464;-81
2021/10/13 09:17:00;;;;;;;26.50;9.37;;;11.60;99.90;;;;;;5080151;28;20485;-83
2021/10/13 09:19:29;;;;;;;26.47;9.50;;;11.70;99.90;;;;;;5079543;28;20525;-83
2021/10/13 09:22:02;;;;;;;24.67;8.57;;;11.90;99.90;;;;;;5079855;28;20462;-83
2021/10/13 09:24:31;;;;;;;29.10;9.30;;;12.10;99.90;;;;;;5064099;28;20520;-82
2021/10/13 09:27:21;;;;;;;26.87;7.97;;;12.30;99.90;;;;;;5060199;28;20526;-82
2021/10/13 09:29:50;;;;;;;29.00;8.30;;;12.80;99.90;;;;;;5059282;28;20868;-82
2021/10/13 09:32:22;;;;;;;24.50;8.07;;;13.00;99.90;;;;;;5059799;28;20487;-81
2021/10/13 09:34:52;;;;;;;24.73;9.00;;;13.00;99.90;;;;;;5078268;28;20452;-82
2021/10/13 09:37:19;;;;;;;25.33;8.77;;;13.20;99.90;;;;;;5079308;28;20552;-82
2021/10/13 09:39:57;;;;;;;23.90;8.93;;;13.10;99.90;;;;;;5080328;28;20465;-82
2021/10/13 09:42:31;;;;;;;24.00;8.03;;;13.20;99.90;;;;;;5079487;28;20475;-82
2021/10/13 09:45:00;;;;;;;30.27;9.20;;;13.30;99.90;;;;;;5059527;28;21002;-83
2021/10/13 09:47:30;;;;;;;27.43;9.83;;;13.20;99.90;;;;;;5059260;28;20448;-80
2021/10/13 09:49:58;;;;;;;26.30;8.57;;;13.10;99.90;;;;;;5059520;28;20505;-82
2021/10/13 09:52:27;;;;;;;26.00;8.47;;;13.10;99.90;;;;;;5059631;28;21011;-82
2021/10/13 09:54:58;;;;;;;22.50;8.60;;;13.10;99.90;;;;;;5080526;28;20478;-82
2021/10/13 09:57:29;;;;;;;24.10;8.63;;;12.80;99.90;;;;;;5088787;28;20512;-83
2021/10/13 09:59:57;;;;;;;30.50;8.87;;;13.00;99.90;;;;;;5079931;28;20453;-82
2021/10/13 10:02:26;;;;;;;25.17;7.93;;;13.10;99.90;;;;;;5079067;28;20467;-83
2021/10/13 10:04:57;;;;;;;26.47;7.60;;;13.20;99.90;;;;;;5060029;28;20463;-83
2021/10/13 10:07:27;;;;;;;24.13;7.27;;;13.30;99.90;;;;;;5058978;28;20450;-83
2021/10/13 10:10:10;;;;;;;26.43;8.50;;;13.60;99.90;;;;;;5058438;28;20949;-83
2021/10/13 10:13:03;;;;;;;29.40;7.90;;;13.50;99.90;;;;;;5067453;28;20503;-83
2021/10/13 10:15:32;;;;;;;30.97;6.50;;;13.80;99.90;;;;;;5074856;28;20469;-83
2021/10/13 10:18:02;;;;;;;26.43;6.90;;;14.60;99.90;;;;;;5078074;28;20493;-82
2021/10/13 10:20:40;;;;;;;27.90;6.13;;;15.60;99.90;;;;;;5078052;28;20481;-82
2021/10/13 10:23:27;;;;;;;25.70;5.73;;;16.50;99.90;;;;;;5062979;28;21013;-82
2021/10/13 10:25:54;;;;;;;29.80;5.40;;;17.00;99.90;;;;;;5058521;28;20452;-82
2021/10/13 10:28:54;;;;;;;27.70;5.10;;;17.50;99.90;;;;;;5058027;28;20486;-82
2021/10/13 10:31:40;;;;;;;28.13;5.37;;;18.20;99.90;;;;;;5058884;28;20543;-82
2021/10/13 10:34:18;;;;;;;23.90;5.60;;;18.50;99.90;;;;;;5062728;28;20458;-82
2021/10/13 10:37:14;;;;;;;27.70;4.90;;;18.30;99.90;;;;;;5076201;28;20573;-82
2021/10/13 10:40:12;;;;;;;22.70;5.17;;;18.40;99.90;;;;;;5058673;28;20460;-82
2021/10/13 10:43:01;;;;;;;23.07;4.83;;;19.10;99.90;;;;;;5058081;28;20476;-82
2021/10/13 10:45:32;;;;;;;22.33;5.47;;;19.90;99.90;;;;;;5058433;28;20463;-82
2021/10/13 10:48:16;;;;;;;16.60;4.20;;;20.20;99.90;;;;;;5060522;28;20456;-82
2021/10/13 10:50:55;;;;;;;21.43;5.90;;;20.50;99.90;;;;;;5079020;28;20443;-82
2021/10/13 10:53:30;;;;;;;19.93;4.90;;;20.60;99.90;;;;;;5078340;28;20482;-82
2021/10/13 10:56:16;;;;;;;19.03;4.27;;;20.30;99.90;;;;;;5074186;28;20463;-82
2021/10/13 10:58:57;;;;;;;16.87;3.80;;;19.80;99.90;;;;;;5069699;28;20458;-82
2021/10/13 11:01:26;;;;;;;18.13;4.20;;;19.10;99.90;;;;;;5067853;28;20512;-84
2021/10/13 11:03:53;;;;;;;17.73;3.43;;;19.50;99.90;;;;;;5061897;28;20472;-83
2021/10/13 11:06:22;;;;;;;20.90;3.60;;;19.40;99.90;;;;;;5058721;28;20447;-83
2021/10/13 11:09:02;;;;;;;17.77;3.47;;;18.60;99.90;;;;;;5067777;28;20457;-82
2021/10/13 11:11:31;;;;;;;18.63;4.43;;;17.90;99.90;;;;;;5078691;28;20460;-83
2021/10/13 11:14:14;;;;;;;22.43;4.80;;;17.40;99.90;;;;;;5069359;28;20463;-82
2021/10/13 11:16:49;;;;;;;16.60;3.70;;;16.70;99.90;;;;;;5079190;28;21032;-82
2021/10/13 11:19:19;;;;;;;18.77;4.37;;;16.40;99.90;;;;;;5079914;28;20946;-82
2021/10/13 11:21:54;;;;;;;17.90;3.50;;;15.90;99.90;;;;;;5077738;28;20443;-82
2021/10/13 11:24:21;;;;;;;20.50;4.53;;;15.50;99.90;;;;;;5074123;28;20470;-82
2021/10/13 11:26:48;;;;;;;24.73;4.30;;;15.20;99.90;;;;;;5068199;28;20450;-83
2021/10/13 11:29:20;;;;;;;17.33;3.70;;;15.00;99.90;;;;;;5079762;28;20451;-82
2021/10/13 11:32:02;;;;;;;15.60;2.80;;;14.80;99.90;;;;;;5072157;28;20464;-82
2021/10/13 11:34:28;;;;;;;17.53;3.60;;;14.60;99.90;;;;;;5076129;28;20467;-82
2021/10/13 11:36:57;;;;;;;17.03;2.67;;;14.50;99.90;;;;;;5077357;28;20485;-83
2021/10/13 11:39:29;;;;;;;15.13;4.20;;;14.40;99.90;;;;;;5069921;28;20747;-83
2021/10/13 11:41:59;;;;;;;16.30;2.90;;;14.30;99.90;;;;;;5083889;28;20478;-84
2021/10/13 11:44:29;;;;;;;20.13;3.80;;;14.30;99.90;;;;;;5082077;28;20451;-83
2021/10/13 11:47:04;;;;;;;19.40;4.10;;;14.30;99.90;;;;;;5079360;28;20443;-83
2021/10/13 11:49:32;;;;;;;21.80;6.30;;;14.70;99.90;;;;;;5078872;28;20447;-84
2021/10/13 11:52:06;;;;;;;19.87;3.80;;;16.60;99.90;;;;;;5079697;28;20453;-83
2021/10/13 11:54:33;;;;;;;21.03;3.03;;;17.80;99.90;;;;;;5075403;28;20454;-84
2021/10/13 11:57:01;;;;;;;19.07;2.73;;;17.70;99.90;;;;;;5078658;28;20506;-84
2021/10/13 11:59:30;;;;;;;19.10;3.13;;;17.50;99.90;;;;;;5074230;28;20468;-84
2021/10/13 12:02:10;;;;;;;18.97;3.50;;;17.10;99.90;;;;;;5068267;28;20439;-84
2021/10/13 12:04:46;;;;;;;15.83;2.67;;;16.60;99.90;;;;;;5066513;28;20449;-83
2021/10/13 12:07:18;;;;;;;16.60;2.27;;;16.50;99.90;;;;;;5072102;28;20446;-84
2021/10/13 12:09:57;;;;;;;17.13;1.87;;;16.40;99.90;;;;;;5069000;28;20448;-84
2021/10/13 12:12:25;;;;;;;17.40;2.13;;;16.10;99.90;;;;;;5072467;28;20470;-84
2021/10/13 12:14:52;;;;;;;15.97;2.40;;;15.70;99.90;;;;;;5066753;28;20446;-83
2021/10/13 12:17:31;;;;;;;17.83;2.27;;;15.30;99.90;;;;;;5066775;28;20491;-84
2021/10/13 12:20:00;;;;;;;14.83;1.73;;;14.90;99.90;;;;;;5061113;28;20904;-84
2021/10/13 12:22:48;;;;;;;17.50;2.40;;;14.60;99.90;;;;;;5071232;28;21072;-83
2021/10/13 12:25:31;;;;;;;19.33;2.70;;;14.40;99.90;;;;;;5074454;28;20568;-83
2021/10/13 12:27:59;;;;;;;14.33;2.30;;;14.20;99.90;;;;;;5076562;28;20449;-83
2021/10/13 12:30:35;;;;;;;14.80;2.50;;;14.00;99.90;;;;;;5080525;28;20488;-84
2021/10/13 12:33:06;;;;;;;14.70;2.17;;;13.60;99.90;;;;;;5083039;28;20534;-83
2021/10/13 12:35:34;;;;;;;13.47;2.57;;;13.60;99.90;;;;;;5081628;28;20785;-83
2021/10/13 12:38:01;;;;;;;17.23;3.17;;;13.50;99.90;;;;;;5078074;28;20484;-83
2021/10/13 12:40:27;;;;;;;14.83;3.10;;;13.40;99.90;;;;;;5065080;28;20459;-84
2021/10/13 12:42:55;;;;;;;16.60;2.20;;;13.30;99.90;;;;;;5081348;28;20944;-83
2021/10/13 12:45:28;;;;;;;14.17;2.00;;;13.30;99.90;;;;;;5074154;28;20520;-84
2021/10/13 12:48:16;;;;;;;20.33;3.17;;;13.30;99.90;;;;;;5073207;28;20440;-83
2021/10/13 12:51:05;;;;;;;18.23;4.60;;;13.40;99.90;;;;;;5074595;28;20459;-82
2021/10/13 12:53:32;;;;;;;20.70;6.83;;;13.60;99.90;;;;;;5073405;28;20474;-84
2021/10/13 12:55:59;;;;;;;18.03;3.43;;;13.80;99.90;;;;;;5074233;28;20496;-84
2021/10/13 12:58:26;;;;;;;15.20;2.13;;;13.80;99.90;;;;;;5072480;28;20511;-83
2021/10/13 13:00:53;;;;;;;13.60;1.47;;;13.90;99.90;;;;;;5074813;28;20450;-83